sensor_id;sensor_type;location;lat;lon;timestamp;P1;durP1;ratioP1;P2;durP2;ratioP2
42000;SDS011;27689;48.390;10.856;2024-01-06T00:00:43;21.97;;;16.93;;
42000;SDS011;27689;48.390;10.856;2024-01-06T00:03:29;19.63;;;15.45;;
42000;SDS011;27689;48.390;10.856;2024-01-06T00:06:13;16.17;;;14.18;;
42000;SDS011;27689;48.390;10.856;2024-01-06T00:08:58;19.15;;;15.43;;
42000;SDS011;27689;48.390;10.856;2024-01-06T00:11:42;21.25;;;16.30;;
42000;SDS011;27689;48.390;10.856;2024-01-06T00:14:26;20.17;;;15.93;;
42000;SDS011;27689;48.390;10.856;2024-01-06T00:17:10;19.48;;;17.13;;
42000;SDS011;27689;48.390;10.856;2024-01-06T00:19:55;18.52;;;14.50;;
42000;SDS011;27689;48.390;10.856;2024-01-06T00:22:39;18.30;;;14.50;;
42000;SDS011;27689;48.390;10.856;2024-01-06T00:25:25;21.70;;;17.75;;
42000;SDS011;27689;48.390;10.856;2024-01-06T00:28:08;18.43;;;14.00;;
42000;SDS011;27689;48.390;10.856;2024-01-06T00:30:52;17.13;;;13.40;;
42000;SDS011;27689;48.390;10.856;2024-01-06T00:33:37;15.85;;;12.88;;
42000;SDS011;27689;48.390;10.856;2024-01-06T00:36:21;17.35;;;13.43;;
42000;SDS011;27689;48.390;10.856;2024-01-06T00:39:05;18.38;;;14.18;;
42000;SDS011;27689;48.390;10.856;2024-01-06T00:41:49;17.25;;;14.25;;
42000;SDS011;27689;48.390;10.856;2024-01-06T00:44:34;20.30;;;16.77;;
42000;SDS011;27689;48.390;10.856;2024-01-06T00:47:19;18.45;;;16.50;;
42000;SDS011;27689;48.390;10.856;2024-01-06T00:50:06;21.23;;;17.58;;
42000;SDS011;27689;48.390;10.856;2024-01-06T00:52:50;19.15;;;16.63;;
42000;SDS011;27689;48.390;10.856;2024-01-06T00:55:37;19.83;;;15.10;;
42000;SDS011;27689;48.390;10.856;2024-01-06T00:58:21;17.07;;;13.70;;
42000;SDS011;27689;48.390;10.856;2024-01-06T01:01:05;16.97;;;13.90;;
42000;SDS011;27689;48.390;10.856;2024-01-06T01:03:48;17.65;;;13.48;;
42000;SDS011;27689;48.390;10.856;2024-01-06T01:06:32;14.43;;;12.50;;
42000;SDS011;27689;48.390;10.856;2024-01-06T01:09:16;16.30;;;13.57;;
42000;SDS011;27689;48.390;10.856;2024-01-06T01:12:00;17.90;;;15.10;;
42000;SDS011;27689;48.390;10.856;2024-01-06T01:14:44;16.63;;;13.93;;
42000;SDS011;27689;48.390;10.856;2024-01-06T01:17:28;17.92;;;14.75;;
42000;SDS011;27689;48.390;10.856;2024-01-06T01:20:12;15.27;;;13.25;;
42000;SDS011;27689;48.390;10.856;2024-01-06T01:22:56;15.87;;;13.00;;
42000;SDS011;27689;48.390;10.856;2024-01-06T01:25:39;15.25;;;13.65;;
42000;SDS011;27689;48.390;10.856;2024-01-06T01:28:23;14.52;;;12.82;;
42000;SDS011;27689;48.390;10.856;2024-01-06T01:31:08;19.85;;;15.98;;
42000;SDS011;27689;48.390;10.856;2024-01-06T01:33:52;20.23;;;17.20;;
42000;SDS011;27689;48.390;10.856;2024-01-06T01:36:35;17.58;;;14.95;;
42000;SDS011;27689;48.390;10.856;2024-01-06T01:39:19;18.13;;;14.93;;
42000;SDS011;27689;48.390;10.856;2024-01-06T01:42:03;19.63;;;16.60;;
42000;SDS011;27689;48.390;10.856;2024-01-06T01:44:47;18.23;;;15.68;;
42000;SDS011;27689;48.390;10.856;2024-01-06T01:47:31;19.10;;;16.13;;
42000;SDS011;27689;48.390;10.856;2024-01-06T01:50:15;20.75;;;18.55;;
42000;SDS011;27689;48.390;10.856;2024-01-06T01:53:00;18.75;;;16.08;;
42000;SDS011;27689;48.390;10.856;2024-01-06T01:58:30;18.33;;;14.95;;
42000;SDS011;27689;48.390;10.856;2024-01-06T02:01:15;17.10;;;14.23;;
42000;SDS011;27689;48.390;10.856;2024-01-06T02:03:59;16.40;;;14.57;;
42000;SDS011;27689;48.390;10.856;2024-01-06T02:06:43;16.83;;;14.63;;
42000;SDS011;27689;48.390;10.856;2024-01-06T02:09:27;16.57;;;14.77;;
42000;SDS011;27689;48.390;10.856;2024-01-06T02:12:13;17.10;;;14.70;;
42000;SDS011;27689;48.390;10.856;2024-01-06T02:14:57;17.43;;;14.43;;
42000;SDS011;27689;48.390;10.856;2024-01-06T02:17:41;13.50;;;11.90;;
42000;SDS011;27689;48.390;10.856;2024-01-06T02:20:25;13.93;;;11.27;;
42000;SDS011;27689;48.390;10.856;2024-01-06T02:23:10;11.73;;;10.27;;
42000;SDS011;27689;48.390;10.856;2024-01-06T02:25:55;12.68;;;10.73;;
42000;SDS011;27689;48.390;10.856;2024-01-06T02:28:39;14.07;;;11.45;;
42000;SDS011;27689;48.390;10.856;2024-01-06T02:31:24;15.88;;;11.55;;
42000;SDS011;27689;48.390;10.856;2024-01-06T02:34:08;14.15;;;11.70;;
42000;SDS011;27689;48.390;10.856;2024-01-06T02:36:52;15.07;;;12.27;;
42000;SDS011;27689;48.390;10.856;2024-01-06T02:39:36;16.27;;;13.13;;
42000;SDS011;27689;48.390;10.856;2024-01-06T02:42:20;15.50;;;12.10;;
42000;SDS011;27689;48.390;10.856;2024-01-06T02:45:04;14.47;;;10.00;;
42000;SDS011;27689;48.390;10.856;2024-01-06T02:47:48;13.30;;;9.85;;
42000;SDS011;27689;48.390;10.856;2024-01-06T02:50:32;11.15;;;8.93;;
42000;SDS011;27689;48.390;10.856;2024-01-06T02:53:16;11.05;;;9.30;;
42000;SDS011;27689;48.390;10.856;2024-01-06T02:56:00;16.90;;;9.30;;
42000;SDS011;27689;48.390;10.856;2024-01-06T02:58:44;11.25;;;8.15;;
42000;SDS011;27689;48.390;10.856;2024-01-06T03:01:28;10.32;;;7.20;;
42000;SDS011;27689;48.390;10.856;2024-01-06T03:04:12;9.85;;;6.63;;
42000;SDS011;27689;48.390;10.856;2024-01-06T03:06:56;9.37;;;5.93;;
42000;SDS011;27689;48.390;10.856;2024-01-06T03:09:40;8.30;;;6.05;;
42000;SDS011;27689;48.390;10.856;2024-01-06T03:12:24;7.57;;;5.50;;
42000;SDS011;27689;48.390;10.856;2024-01-06T03:15:08;12.23;;;6.53;;
42000;SDS011;27689;48.390;10.856;2024-01-06T03:17:52;8.68;;;7.05;;
42000;SDS011;27689;48.390;10.856;2024-01-06T03:20:36;13.75;;;7.28;;
42000;SDS011;27689;48.390;10.856;2024-01-06T03:23:20;10.63;;;6.55;;
42000;SDS011;27689;48.390;10.856;2024-01-06T03:26:07;7.25;;;4.70;;
42000;SDS011;27689;48.390;10.856;2024-01-06T03:28:51;9.18;;;5.18;;
42000;SDS011;27689;48.390;10.856;2024-01-06T03:31:35;10.83;;;4.70;;
42000;SDS011;27689;48.390;10.856;2024-01-06T03:34:18;7.35;;;4.28;;
42000;SDS011;27689;48.390;10.856;2024-01-06T03:37:02;8.23;;;3.83;;
42000;SDS011;27689;48.390;10.856;2024-01-06T03:39:46;6.47;;;3.35;;
42000;SDS011;27689;48.390;10.856;2024-01-06T03:42:30;6.20;;;2.80;;
42000;SDS011;27689;48.390;10.856;2024-01-06T03:45:15;3.92;;;2.38;;
42000;SDS011;27689;48.390;10.856;2024-01-06T03:47:58;5.22;;;2.08;;
42000;SDS011;27689;48.390;10.856;2024-01-06T03:50:42;5.30;;;1.60;;
42000;SDS011;27689;48.390;10.856;2024-01-06T03:53:26;6.07;;;1.67;;
42000;SDS011;27689;48.390;10.856;2024-01-06T03:56:12;3.23;;;1.80;;
42000;SDS011;27689;48.390;10.856;2024-01-06T03:58:57;4.18;;;1.80;;
42000;SDS011;27689;48.390;10.856;2024-01-06T04:01:41;4.53;;;2.00;;
42000;SDS011;27689;48.390;10.856;2024-01-06T04:04:24;7.90;;;2.85;;
42000;SDS011;27689;48.390;10.856;2024-01-06T04:07:08;4.82;;;2.13;;
42000;SDS011;27689;48.390;10.856;2024-01-06T04:09:52;4.30;;;2.53;;
42000;SDS011;27689;48.390;10.856;2024-01-06T04:12:36;5.33;;;2.93;;
42000;SDS011;27689;48.390;10.856;2024-01-06T04:15:20;8.40;;;3.55;;
42000;SDS011;27689;48.390;10.856;2024-01-06T04:18:04;7.90;;;2.97;;
42000;SDS011;27689;48.390;10.856;2024-01-06T04:20:49;6.35;;;2.67;;
42000;SDS011;27689;48.390;10.856;2024-01-06T04:23:33;5.40;;;2.60;;
42000;SDS011;27689;48.390;10.856;2024-01-06T04:26:17;5.50;;;2.25;;
42000;SDS011;27689;48.390;10.856;2024-01-06T04:29:01;5.00;;;2.30;;
42000;SDS011;27689;48.390;10.856;2024-01-06T04:31:45;4.33;;;2.20;;
42000;SDS011;27689;48.390;10.856;2024-01-06T04:34:29;6.72;;;2.28;;
42000;SDS011;27689;48.390;10.856;2024-01-06T04:37:13;5.38;;;2.45;;
42000;SDS011;27689;48.390;10.856;2024-01-06T04:39:57;4.68;;;1.95;;
42000;SDS011;27689;48.390;10.856;2024-01-06T04:45:25;4.25;;;2.20;;
42000;SDS011;27689;48.390;10.856;2024-01-06T04:48:09;5.60;;;2.40;;
42000;SDS011;27689;48.390;10.856;2024-01-06T04:50:53;3.23;;;2.00;;
42000;SDS011;27689;48.390;10.856;2024-01-06T04:53:37;5.57;;;2.42;;
42000;SDS011;27689;48.390;10.856;2024-01-06T04:56:22;7.45;;;2.50;;
42000;SDS011;27689;48.390;10.856;2024-01-06T04:59:06;4.50;;;1.95;;
42000;SDS011;27689;48.390;10.856;2024-01-06T05:01:50;4.57;;;1.90;;
42000;SDS011;27689;48.390;10.856;2024-01-06T05:04:35;5.30;;;2.33;;
42000;SDS011;27689;48.390;10.856;2024-01-06T05:07:19;3.60;;;1.83;;
42000;SDS011;27689;48.390;10.856;2024-01-06T05:10:03;4.93;;;1.80;;
42000;SDS011;27689;48.390;10.856;2024-01-06T05:12:48;6.43;;;2.00;;
42000;SDS011;27689;48.390;10.856;2024-01-06T05:15:32;5.07;;;3.80;;
42000;SDS011;27689;48.390;10.856;2024-01-06T05:18:16;12.35;;;7.75;;
42000;SDS011;27689;48.390;10.856;2024-01-06T05:21:01;10.07;;;4.43;;
42000;SDS011;27689;48.390;10.856;2024-01-06T05:23:46;8.05;;;3.50;;
42000;SDS011;27689;48.390;10.856;2024-01-06T05:26:30;8.03;;;3.20;;
42000;SDS011;27689;48.390;10.856;2024-01-06T05:29:13;5.85;;;2.70;;
42000;SDS011;27689;48.390;10.856;2024-01-06T05:31:57;4.63;;;2.53;;
42000;SDS011;27689;48.390;10.856;2024-01-06T05:34:41;4.43;;;2.67;;
42000;SDS011;27689;48.390;10.856;2024-01-06T05:37:25;5.93;;;2.72;;
42000;SDS011;27689;48.390;10.856;2024-01-06T05:40:09;4.50;;;2.00;;
42000;SDS011;27689;48.390;10.856;2024-01-06T05:42:54;5.85;;;1.75;;
42000;SDS011;27689;48.390;10.856;2024-01-06T05:45:40;6.88;;;2.20;;
42000;SDS011;27689;48.390;10.856;2024-01-06T05:48:25;4.68;;;2.17;;
42000;SDS011;27689;48.390;10.856;2024-01-06T05:51:09;4.33;;;2.10;;
42000;SDS011;27689;48.390;10.856;2024-01-06T05:53:53;4.27;;;2.17;;
42000;SDS011;27689;48.390;10.856;2024-01-06T05:56:38;4.75;;;1.70;;
42000;SDS011;27689;48.390;10.856;2024-01-06T05:59:22;3.60;;;1.65;;
42000;SDS011;27689;48.390;10.856;2024-01-06T06:02:06;4.30;;;1.80;;
42000;SDS011;27689;48.390;10.856;2024-01-06T06:04:51;3.75;;;2.03;;
42000;SDS011;27689;48.390;10.856;2024-01-06T06:07:36;3.83;;;1.60;;
42000;SDS011;27689;48.390;10.856;2024-01-06T06:10:22;5.88;;;2.35;;
42000;SDS011;27689;48.390;10.856;2024-01-06T06:13:06;4.13;;;2.63;;
42000;SDS011;27689;48.390;10.856;2024-01-06T06:15:54;5.55;;;2.58;;
42000;SDS011;27689;48.390;10.856;2024-01-06T06:18:39;6.70;;;2.92;;
42000;SDS011;27689;48.390;10.856;2024-01-06T06:21:23;4.25;;;2.65;;
42000;SDS011;27689;48.390;10.856;2024-01-06T06:24:07;6.00;;;2.80;;
42000;SDS011;27689;48.390;10.856;2024-01-06T06:26:51;3.53;;;2.50;;
42000;SDS011;27689;48.390;10.856;2024-01-06T06:29:35;4.47;;;2.30;;
42000;SDS011;27689;48.390;10.856;2024-01-06T06:32:19;4.63;;;2.25;;
42000;SDS011;27689;48.390;10.856;2024-01-06T06:35:03;7.57;;;2.70;;
42000;SDS011;27689;48.390;10.856;2024-01-06T06:37:47;6.28;;;2.72;;
42000;SDS011;27689;48.390;10.856;2024-01-06T06:40:31;7.47;;;2.33;;
42000;SDS011;27689;48.390;10.856;2024-01-06T06:43:15;5.17;;;2.33;;
42000;SDS011;27689;48.390;10.856;2024-01-06T06:45:59;4.13;;;1.92;;
42000;SDS011;27689;48.390;10.856;2024-01-06T06:48:43;4.80;;;2.15;;
42000;SDS011;27689;48.390;10.856;2024-01-06T06:51:26;4.80;;;2.03;;
42000;SDS011;27689;48.390;10.856;2024-01-06T06:54:11;5.22;;;2.13;;
42000;SDS011;27689;48.390;10.856;2024-01-06T06:56:56;4.65;;;2.72;;
42000;SDS011;27689;48.390;10.856;2024-01-06T06:59:40;6.18;;;4.63;;
42000;SDS011;27689;48.390;10.856;2024-01-06T07:02:24;6.68;;;4.13;;
42000;SDS011;27689;48.390;10.856;2024-01-06T07:05:08;6.35;;;3.20;;
42000;SDS011;27689;48.390;10.856;2024-01-06T07:07:52;7.67;;;3.07;;
42000;SDS011;27689;48.390;10.856;2024-01-06T07:10:36;4.07;;;2.40;;
42000;SDS011;27689;48.390;10.856;2024-01-06T07:13:21;4.60;;;2.88;;
42000;SDS011;27689;48.390;10.856;2024-01-06T07:16:05;4.63;;;2.47;;
42000;SDS011;27689;48.390;10.856;2024-01-06T07:21:34;7.90;;;2.80;;
42000;SDS011;27689;48.390;10.856;2024-01-06T07:24:18;6.32;;;2.65;;
42000;SDS011;27689;48.390;10.856;2024-01-06T07:27:02;4.28;;;2.75;;
42000;SDS011;27689;48.390;10.856;2024-01-06T07:29:47;3.67;;;2.65;;
42000;SDS011;27689;48.390;10.856;2024-01-06T07:32:31;8.70;;;3.70;;
42000;SDS011;27689;48.390;10.856;2024-01-06T07:35:15;7.50;;;3.35;;
42000;SDS011;27689;48.390;10.856;2024-01-06T07:37:59;6.18;;;3.70;;
42000;SDS011;27689;48.390;10.856;2024-01-06T07:40:43;5.00;;;3.40;;
42000;SDS011;27689;48.390;10.856;2024-01-06T07:43:27;5.93;;;3.67;;
42000;SDS011;27689;48.390;10.856;2024-01-06T07:46:12;7.00;;;3.28;;
42000;SDS011;27689;48.390;10.856;2024-01-06T07:48:56;10.55;;;4.13;;
42000;SDS011;27689;48.390;10.856;2024-01-06T07:51:40;5.53;;;3.30;;
42000;SDS011;27689;48.390;10.856;2024-01-06T07:54:24;5.95;;;3.58;;
42000;SDS011;27689;48.390;10.856;2024-01-06T07:57:09;5.97;;;3.70;;
42000;SDS011;27689;48.390;10.856;2024-01-06T07:59:55;5.20;;;3.40;;
42000;SDS011;27689;48.390;10.856;2024-01-06T08:02:39;8.10;;;3.90;;
42000;SDS011;27689;48.390;10.856;2024-01-06T08:05:22;5.78;;;3.80;;
42000;SDS011;27689;48.390;10.856;2024-01-06T08:08:06;6.63;;;3.55;;
42000;SDS011;27689;48.390;10.856;2024-01-06T08:10:50;4.97;;;3.90;;
42000;SDS011;27689;48.390;10.856;2024-01-06T08:13:34;6.97;;;3.67;;
42000;SDS011;27689;48.390;10.856;2024-01-06T08:16:18;5.43;;;3.67;;
42000;SDS011;27689;48.390;10.856;2024-01-06T08:19:02;5.85;;;3.85;;
42000;SDS011;27689;48.390;10.856;2024-01-06T08:21:47;6.38;;;4.13;;
42000;SDS011;27689;48.390;10.856;2024-01-06T08:24:32;15.38;;;9.15;;
42000;SDS011;27689;48.390;10.856;2024-01-06T08:27:16;17.13;;;11.57;;
42000;SDS011;27689;48.390;10.856;2024-01-06T08:30:00;13.50;;;9.70;;
42000;SDS011;27689;48.390;10.856;2024-01-06T08:32:45;11.85;;;9.23;;
42000;SDS011;27689;48.390;10.856;2024-01-06T08:35:28;10.82;;;6.32;;
42000;SDS011;27689;48.390;10.856;2024-01-06T08:38:12;9.10;;;5.70;;
42000;SDS011;27689;48.390;10.856;2024-01-06T08:40:56;6.40;;;4.87;;
42000;SDS011;27689;48.390;10.856;2024-01-06T08:43:40;8.70;;;4.90;;
42000;SDS011;27689;48.390;10.856;2024-01-06T08:46:24;8.15;;;5.72;;
42000;SDS011;27689;48.390;10.856;2024-01-06T08:49:08;15.88;;;9.32;;
42000;SDS011;27689;48.390;10.856;2024-01-06T08:51:51;7.73;;;5.57;;
42000;SDS011;27689;48.390;10.856;2024-01-06T08:54:35;9.03;;;5.17;;
42000;SDS011;27689;48.390;10.856;2024-01-06T08:57:19;8.63;;;6.15;;
42000;SDS011;27689;48.390;10.856;2024-01-06T09:00:04;9.23;;;6.47;;
42000;SDS011;27689;48.390;10.856;2024-01-06T09:02:49;11.43;;;6.50;;
42000;SDS011;27689;48.390;10.856;2024-01-06T09:05:33;9.30;;;6.10;;
42000;SDS011;27689;48.390;10.856;2024-01-06T09:08:17;10.80;;;6.13;;
42000;SDS011;27689;48.390;10.856;2024-01-06T09:11:02;8.52;;;5.43;;
42000;SDS011;27689;48.390;10.856;2024-01-06T09:13:46;10.40;;;5.03;;
42000;SDS011;27689;48.390;10.856;2024-01-06T09:16:30;9.77;;;5.40;;
42000;SDS011;27689;48.390;10.856;2024-01-06T09:19:14;7.07;;;5.30;;
42000;SDS011;27689;48.390;10.856;2024-01-06T09:21:58;11.00;;;6.70;;
42000;SDS011;27689;48.390;10.856;2024-01-06T09:24:42;12.32;;;7.95;;
42000;SDS011;27689;48.390;10.856;2024-01-06T09:27:26;11.07;;;8.00;;
42000;SDS011;27689;48.390;10.856;2024-01-06T09:30:10;12.23;;;8.00;;
42000;SDS011;27689;48.390;10.856;2024-01-06T09:32:54;11.27;;;7.05;;
42000;SDS011;27689;48.390;10.856;2024-01-06T09:35:38;9.98;;;5.95;;
42000;SDS011;27689;48.390;10.856;2024-01-06T09:38:22;9.10;;;6.07;;
42000;SDS011;27689;48.390;10.856;2024-01-06T09:41:06;9.23;;;5.80;;
42000;SDS011;27689;48.390;10.856;2024-01-06T09:43:50;11.95;;;6.20;;
42000;SDS011;27689;48.390;10.856;2024-01-06T09:46:34;12.25;;;6.18;;
42000;SDS011;27689;48.390;10.856;2024-01-06T09:49:22;10.10;;;5.68;;
42000;SDS011;27689;48.390;10.856;2024-01-06T09:52:09;11.27;;;5.85;;
42000;SDS011;27689;48.390;10.856;2024-01-06T09:55:00;9.93;;;6.30;;
42000;SDS011;27689;48.390;10.856;2024-01-06T09:57:46;10.13;;;7.00;;
42000;SDS011;27689;48.390;10.856;2024-01-06T10:00:30;10.93;;;6.38;;
42000;SDS011;27689;48.390;10.856;2024-01-06T10:03:14;11.00;;;7.40;;
42000;SDS011;27689;48.390;10.856;2024-01-06T10:06:00;9.63;;;7.57;;
42000;SDS011;27689;48.390;10.856;2024-01-06T10:08:50;10.45;;;7.70;;
42000;SDS011;27689;48.390;10.856;2024-01-06T10:11:36;10.23;;;6.88;;
42000;SDS011;27689;48.390;10.856;2024-01-06T10:14:21;10.65;;;6.82;;
42000;SDS011;27689;48.390;10.856;2024-01-06T10:17:08;12.55;;;6.35;;
42000;SDS011;27689;48.390;10.856;2024-01-06T10:19:52;8.20;;;6.25;;
42000;SDS011;27689;48.390;10.856;2024-01-06T10:22:38;12.43;;;5.60;;
42000;SDS011;27689;48.390;10.856;2024-01-06T10:25:24;13.13;;;6.38;;
42000;SDS011;27689;48.390;10.856;2024-01-06T10:28:17;7.13;;;4.95;;
42000;SDS011;27689;48.390;10.856;2024-01-06T10:31:30;9.68;;;5.82;;
42000;SDS011;27689;48.390;10.856;2024-01-06T10:34:14;11.25;;;5.95;;
42000;SDS011;27689;48.390;10.856;2024-01-06T10:36:59;7.57;;;5.10;;
42000;SDS011;27689;48.390;10.856;2024-01-06T10:39:43;13.15;;;7.40;;
42000;SDS011;27689;48.390;10.856;2024-01-06T10:42:28;14.68;;;9.93;;
42000;SDS011;27689;48.390;10.856;2024-01-06T10:45:14;15.45;;;10.77;;
42000;SDS011;27689;48.390;10.856;2024-01-06T10:47:59;14.05;;;7.50;;
42000;SDS011;27689;48.390;10.856;2024-01-06T10:50:43;12.00;;;5.90;;
42000;SDS011;27689;48.390;10.856;2024-01-06T10:53:28;12.88;;;8.70;;
42000;SDS011;27689;48.390;10.856;2024-01-06T10:56:14;17.60;;;10.77;;
42000;SDS011;27689;48.390;10.856;2024-01-06T10:58:59;20.88;;;12.48;;
42000;SDS011;27689;48.390;10.856;2024-01-06T11:01:46;19.83;;;9.85;;
42000;SDS011;27689;48.390;10.856;2024-01-06T11:04:32;14.65;;;8.60;;
42000;SDS011;27689;48.390;10.856;2024-01-06T11:07:18;13.57;;;7.38;;
42000;SDS011;27689;48.390;10.856;2024-01-06T11:10:10;16.33;;;9.98;;
42000;SDS011;27689;48.390;10.856;2024-01-06T11:13:09;14.75;;;9.05;;
42000;SDS011;27689;48.390;10.856;2024-01-06T11:15:55;13.07;;;7.88;;
42000;SDS011;27689;48.390;10.856;2024-01-06T11:18:39;11.48;;;7.18;;
42000;SDS011;27689;48.390;10.856;2024-01-06T11:21:27;11.98;;;8.30;;
42000;SDS011;27689;48.390;10.856;2024-01-06T11:24:20;13.23;;;7.38;;
42000;SDS011;27689;48.390;10.856;2024-01-06T11:27:08;24.27;;;10.80;;
42000;SDS011;27689;48.390;10.856;2024-01-06T11:30:01;24.08;;;11.27;;
42000;SDS011;27689;48.390;10.856;2024-01-06T11:32:53;12.60;;;7.93;;
42000;SDS011;27689;48.390;10.856;2024-01-06T11:35:39;11.95;;;6.95;;
42000;SDS011;27689;48.390;10.856;2024-01-06T11:38:24;10.73;;;6.10;;
42000;SDS011;27689;48.390;10.856;2024-01-06T11:41:08;13.95;;;7.75;;
42000;SDS011;27689;48.390;10.856;2024-01-06T11:43:55;14.43;;;7.65;;
42000;SDS011;27689;48.390;10.856;2024-01-06T11:46:39;12.23;;;7.50;;
42000;SDS011;27689;48.390;10.856;2024-01-06T11:49:26;9.45;;;7.50;;
42000;SDS011;27689;48.390;10.856;2024-01-06T11:52:13;14.23;;;7.53;;
42000;SDS011;27689;48.390;10.856;2024-01-06T11:54:58;11.45;;;7.82;;
42000;SDS011;27689;48.390;10.856;2024-01-06T11:57:45;11.10;;;7.28;;
42000;SDS011;27689;48.390;10.856;2024-01-06T12:00:31;11.43;;;7.57;;
42000;SDS011;27689;48.390;10.856;2024-01-06T12:03:16;10.60;;;7.65;;
42000;SDS011;27689;48.390;10.856;2024-01-06T12:06:00;10.15;;;7.47;;
42000;SDS011;27689;48.390;10.856;2024-01-06T12:08:46;12.85;;;8.52;;
42000;SDS011;27689;48.390;10.856;2024-01-06T12:11:30;10.80;;;7.67;;
42000;SDS011;27689;48.390;10.856;2024-01-06T12:14:14;12.15;;;8.00;;
42000;SDS011;27689;48.390;10.856;2024-01-06T12:16:59;11.32;;;7.32;;
42000;SDS011;27689;48.390;10.856;2024-01-06T12:19:47;12.57;;;9.52;;
42000;SDS011;27689;48.390;10.856;2024-01-06T12:22:31;14.65;;;9.35;;
42000;SDS011;27689;48.390;10.856;2024-01-06T12:25:15;19.30;;;10.93;;
42000;SDS011;27689;48.390;10.856;2024-01-06T12:28:00;20.17;;;11.70;;
42000;SDS011;27689;48.390;10.856;2024-01-06T12:30:44;19.60;;;12.40;;
42000;SDS011;27689;48.390;10.856;2024-01-06T12:33:28;27.25;;;16.25;;
42000;SDS011;27689;48.390;10.856;2024-01-06T12:36:12;23.42;;;14.93;;
42000;SDS011;27689;48.390;10.856;2024-01-06T12:38:59;14.48;;;9.73;;
42000;SDS011;27689;48.390;10.856;2024-01-06T12:41:44;11.57;;;7.72;;
42000;SDS011;27689;48.390;10.856;2024-01-06T12:44:28;12.82;;;9.85;;
42000;SDS011;27689;48.390;10.856;2024-01-06T12:47:12;21.50;;;14.90;;
42000;SDS011;27689;48.390;10.856;2024-01-06T12:49:56;18.60;;;15.90;;
42000;SDS011;27689;48.390;10.856;2024-01-06T12:52:40;19.20;;;16.33;;
42000;SDS011;27689;48.390;10.856;2024-01-06T12:55:25;23.30;;;20.80;;
42000;SDS011;27689;48.390;10.856;2024-01-06T12:58:09;16.83;;;10.68;;
42000;SDS011;27689;48.390;10.856;2024-01-06T13:00:53;12.27;;;9.23;;
42000;SDS011;27689;48.390;10.856;2024-01-06T13:03:37;14.88;;;10.18;;
42000;SDS011;27689;48.390;10.856;2024-01-06T13:06:20;12.98;;;10.20;;
42000;SDS011;27689;48.390;10.856;2024-01-06T13:09:04;13.52;;;8.82;;
42000;SDS011;27689;48.390;10.856;2024-01-06T13:14:34;16.90;;;12.75;;
42000;SDS011;27689;48.390;10.856;2024-01-06T13:17:19;15.90;;;10.80;;
42000;SDS011;27689;48.390;10.856;2024-01-06T13:20:03;15.05;;;9.82;;
42000;SDS011;27689;48.390;10.856;2024-01-06T13:22:48;16.33;;;10.45;;
42000;SDS011;27689;48.390;10.856;2024-01-06T13:25:32;13.68;;;9.18;;
42000;SDS011;27689;48.390;10.856;2024-01-06T13:28:16;12.15;;;9.48;;
42000;SDS011;27689;48.390;10.856;2024-01-06T13:31:00;12.60;;;9.33;;
42000;SDS011;27689;48.390;10.856;2024-01-06T13:33:45;15.27;;;10.20;;
42000;SDS011;27689;48.390;10.856;2024-01-06T13:36:29;14.25;;;9.63;;
42000;SDS011;27689;48.390;10.856;2024-01-06T13:39:13;13.10;;;9.87;;
42000;SDS011;27689;48.390;10.856;2024-01-06T13:42:06;13.23;;;9.90;;
42000;SDS011;27689;48.390;10.856;2024-01-06T13:44:50;15.43;;;11.33;;
42000;SDS011;27689;48.390;10.856;2024-01-06T13:47:34;18.85;;;11.80;;
42000;SDS011;27689;48.390;10.856;2024-01-06T13:50:18;15.70;;;11.82;;
42000;SDS011;27689;48.390;10.856;2024-01-06T13:53:02;20.73;;;13.30;;
42000;SDS011;27689;48.390;10.856;2024-01-06T13:55:47;17.55;;;11.02;;
42000;SDS011;27689;48.390;10.856;2024-01-06T13:58:31;13.00;;;8.82;;
42000;SDS011;27689;48.390;10.856;2024-01-06T14:01:15;9.10;;;7.07;;
42000;SDS011;27689;48.390;10.856;2024-01-06T14:03:59;9.88;;;7.47;;
42000;SDS011;27689;48.390;10.856;2024-01-06T14:06:44;15.00;;;9.05;;
42000;SDS011;27689;48.390;10.856;2024-01-06T14:09:28;10.13;;;7.65;;
42000;SDS011;27689;48.390;10.856;2024-01-06T14:12:12;13.98;;;8.45;;
42000;SDS011;27689;48.390;10.856;2024-01-06T14:14:57;9.70;;;6.03;;
42000;SDS011;27689;48.390;10.856;2024-01-06T14:17:42;8.48;;;7.25;;
42000;SDS011;27689;48.390;10.856;2024-01-06T14:20:32;11.57;;;7.90;;
42000;SDS011;27689;48.390;10.856;2024-01-06T14:23:21;11.40;;;8.13;;
42000;SDS011;27689;48.390;10.856;2024-01-06T14:26:05;15.00;;;11.07;;
42000;SDS011;27689;48.390;10.856;2024-01-06T14:28:49;13.50;;;9.93;;
42000;SDS011;27689;48.390;10.856;2024-01-06T14:31:33;10.52;;;8.98;;
42000;SDS011;27689;48.390;10.856;2024-01-06T14:34:18;12.23;;;7.72;;
42000;SDS011;27689;48.390;10.856;2024-01-06T14:37:01;9.43;;;7.80;;
42000;SDS011;27689;48.390;10.856;2024-01-06T14:39:45;11.65;;;9.93;;
42000;SDS011;27689;48.390;10.856;2024-01-06T14:42:29;13.90;;;12.43;;
42000;SDS011;27689;48.390;10.856;2024-01-06T14:45:13;11.40;;;8.65;;
42000;SDS011;27689;48.390;10.856;2024-01-06T14:47:58;12.30;;;8.15;;
42000;SDS011;27689;48.390;10.856;2024-01-06T14:50:42;10.90;;;7.78;;
42000;SDS011;27689;48.390;10.856;2024-01-06T14:53:25;10.55;;;7.88;;
42000;SDS011;27689;48.390;10.856;2024-01-06T14:56:10;13.20;;;9.18;;
42000;SDS011;27689;48.390;10.856;2024-01-06T14:58:53;11.95;;;8.27;;
42000;SDS011;27689;48.390;10.856;2024-01-06T15:01:38;15.13;;;9.48;;
42000;SDS011;27689;48.390;10.856;2024-01-06T15:04:25;12.52;;;9.70;;
42000;SDS011;27689;48.390;10.856;2024-01-06T15:07:09;15.05;;;9.60;;
42000;SDS011;27689;48.390;10.856;2024-01-06T15:09:53;13.73;;;9.10;;
42000;SDS011;27689;48.390;10.856;2024-01-06T15:12:37;15.90;;;11.00;;
42000;SDS011;27689;48.390;10.856;2024-01-06T15:15:21;14.27;;;10.07;;
42000;SDS011;27689;48.390;10.856;2024-01-06T15:18:05;15.23;;;9.50;;
42000;SDS011;27689;48.390;10.856;2024-01-06T15:20:49;12.70;;;9.00;;
42000;SDS011;27689;48.390;10.856;2024-01-06T15:23:33;11.50;;;8.27;;
42000;SDS011;27689;48.390;10.856;2024-01-06T15:26:21;8.90;;;7.10;;
42000;SDS011;27689;48.390;10.856;2024-01-06T15:29:05;9.27;;;7.43;;
42000;SDS011;27689;48.390;10.856;2024-01-06T15:31:49;11.27;;;7.03;;
42000;SDS011;27689;48.390;10.856;2024-01-06T15:34:35;7.97;;;6.10;;
42000;SDS011;27689;48.390;10.856;2024-01-06T15:37:19;9.77;;;6.77;;
42000;SDS011;27689;48.390;10.856;2024-01-06T15:40:03;10.60;;;6.18;;
42000;SDS011;27689;48.390;10.856;2024-01-06T15:42:48;9.77;;;6.78;;
42000;SDS011;27689;48.390;10.856;2024-01-06T15:45:32;12.47;;;7.30;;
42000;SDS011;27689;48.390;10.856;2024-01-06T15:48:16;9.68;;;6.38;;
42000;SDS011;27689;48.390;10.856;2024-01-06T15:51:00;8.85;;;6.57;;
42000;SDS011;27689;48.390;10.856;2024-01-06T15:53:44;9.83;;;6.80;;
42000;SDS011;27689;48.390;10.856;2024-01-06T15:56:28;11.83;;;7.83;;
42000;SDS011;27689;48.390;10.856;2024-01-06T15:59:12;12.95;;;9.38;;
42000;SDS011;27689;48.390;10.856;2024-01-06T16:01:56;14.07;;;8.80;;
42000;SDS011;27689;48.390;10.856;2024-01-06T16:04:40;11.40;;;8.35;;
42000;SDS011;27689;48.390;10.856;2024-01-06T16:07:24;11.83;;;8.23;;
42000;SDS011;27689;48.390;10.856;2024-01-06T16:10:08;10.82;;;7.40;;
42000;SDS011;27689;48.390;10.856;2024-01-06T16:12:54;10.35;;;6.88;;
42000;SDS011;27689;48.390;10.856;2024-01-06T16:15:41;7.55;;;6.57;;